Time;durP1;ratioP1;P1;durP2;ratioP2;P2;SDS_P1;SDS_P2;PMS_P1;PMS_P2;Temp;Humidity;BMP_temperature;BMP_pressure;BME280_temperature;BME280_humidity;BME280_pressure;Samples;Min_cycle;Max_cycle;Signal;HPM_P1;HPM_P2
2023/04/26 00:00:22;;;;;;;13.50;3.00;;;2.70;99.90;;;2.41;100.00;100799.72;5060196;28;20028;-75
2023/04/26 00:02:47;;;;;;;12.00;3.00;;;2.70;99.90;;;2.44;100.00;100808.34;5093747;28;20139;-74
2023/04/26 00:05:15;;;;;;;10.40;2.60;;;2.80;99.90;;;2.36;100.00;100794.78;5061245;28;20508;-74
2023/04/26 00:07:41;;;;;;;11.43;2.58;;;2.70;99.90;;;2.37;100.00;100799.19;5092722;28;20965;-75
2023/04/26 00:10:09;;;;;;;14.30;3.47;;;2.80;99.90;;;2.51;100.00;100803.13;5093436;28;20039;-74
2023/04/26 00:12:35;;;;;;;7.07;2.60;;;2.80;99.90;;;2.61;100.00;100803.00;5092696;28;20433;-73
2023/04/26 00:15:03;;;;;;;6.43;2.47;;;2.90;99.90;;;2.46;100.00;100789.31;5092970;28;20117;-74
2023/04/26 00:17:29;;;;;;;11.32;2.90;;;3.00;99.90;;;2.58;100.00;100803.34;5092706;28;20390;-74
2023/04/26 00:19:56;;;;;;;12.85;2.47;;;3.00;99.90;;;2.52;100.00;100793.22;5092794;28;20073;-74
2023/04/26 00:22:23;;;;;;;12.80;3.00;;;2.90;99.90;;;2.57;100.00;100802.50;5092615;28;20035;-74
2023/04/26 00:24:48;;;;;;;10.65;2.40;;;2.80;99.90;;;2.58;100.00;100806.88;5062487;28;20041;-75
2023/04/26 00:27:15;;;;;;;10.90;2.58;;;2.80;99.90;;;2.56;100.00;100800.81;5092236;28;20055;-74
2023/04/26 00:29:41;;;;;;;6.53;2.28;;;2.80;99.90;;;2.56;100.00;100808.03;5092013;28;20032;-74
2023/04/26 00:32:07;;;;;;;11.70;3.10;;;2.70;99.90;;;2.50;100.00;100796.06;5092536;28;20467;-75
2023/04/26 00:34:36;;;;;;;10.68;3.05;;;2.60;99.90;;;2.45;100.00;100801.09;5092543;28;20036;-75
2023/04/26 00:37:04;;;;;;;9.15;2.78;;;2.60;99.90;;;2.50;100.00;100806.00;5067597;28;20047;-75
2023/04/26 00:39:30;;;;;;;7.38;2.45;;;2.70;99.90;;;2.46;100.00;100800.06;5092040;28;20256;-74
2023/04/26 00:41:56;;;;;;;10.07;2.83;;;2.60;99.90;;;2.42;100.00;100809.47;5092539;28;20067;-74
2023/04/26 00:44:22;;;;;;;10.90;2.97;;;2.60;99.90;;;2.44;100.00;100800.25;5092126;28;20024;-75
2023/04/26 00:46:52;;;;;;;8.95;2.42;;;2.50;99.90;;;2.35;100.00;100808.44;5092263;28;20510;-74
2023/04/26 00:49:22;;;;;;;12.40;3.10;;;2.50;99.90;;;2.38;100.00;100808.13;5074303;28;20487;-75
2023/04/26 00:51:50;;;;;;;10.15;3.03;;;2.50;99.90;;;2.32;100.00;100798.81;5087461;28;20058;-74
2023/04/26 00:54:19;;;;;;;6.30;2.42;;;2.50;99.90;;;2.25;100.00;100803.97;5088386;28;20024;-74
2023/04/26 00:56:45;;;;;;;9.80;2.40;;;2.40;99.90;;;2.13;100.00;100800.72;5091910;28;20036;-74
2023/04/26 00:59:10;;;;;;;8.52;2.38;;;2.40;99.90;;;2.00;100.00;100776.94;5092273;28;20387;-74
2023/04/26 01:01:36;;;;;;;13.38;3.53;;;2.30;99.90;;;1.94;100.00;100779.41;5067372;28;20505;-75
2023/04/26 01:04:03;;;;;;;8.30;2.38;;;2.30;99.90;;;2.05;100.00;100802.53;5074018;28;20039;-74
2023/04/26 01:06:34;;;;;;;12.70;2.60;;;2.30;99.90;;;2.09;100.00;100815.50;5076190;28;20036;-74
2023/04/26 01:09:03;;;;;;;9.63;3.13;;;2.30;99.90;;;2.11;100.00;100818.03;5073515;28;20125;-75
2023/04/26 01:11:31;;;;;;;12.93;2.58;;;2.40;99.90;;;2.12;100.00;100814.34;5091138;28;20106;-74
2023/04/26 01:13:57;;;;;;;13.65;2.83;;;2.30;99.90;;;2.13;100.00;100821.41;5091720;28;20368;-75
2023/04/26 01:16:24;;;;;;;10.23;2.72;;;2.40;99.90;;;2.09;100.00;100823.56;5091680;28;20463;-74
2023/04/26 01:18:51;;;;;;;8.65;3.13;;;2.30;99.90;;;2.15;100.00;100822.09;5064401;28;20063;-74
2023/04/26 01:21:21;;;;;;;7.50;2.22;;;2.30;99.90;;;2.20;100.00;100833.22;5090698;28;20077;-74
2023/04/26 01:23:49;;;;;;;10.05;2.50;;;2.40;99.90;;;2.11;100.00;100816.16;5091856;28;20028;-74
2023/04/26 01:26:15;;;;;;;12.43;3.65;;;2.40;99.90;;;2.07;100.00;100822.03;5091470;28;20114;-75
2023/04/26 01:28:41;;;;;;;9.98;2.75;;;2.30;99.90;;;2.03;100.00;100820.69;5072718;28;20036;-74
2023/04/26 01:31:07;;;;;;;10.50;2.42;;;2.30;99.90;;;2.02;100.00;100825.19;5071992;28;20036;-74
2023/04/26 01:33:32;;;;;;;12.75;2.90;;;2.20;99.90;;;2.07;100.00;100830.94;5091525;28;20085;-75
2023/04/26 01:35:58;;;;;;;9.80;3.05;;;2.20;99.90;;;2.09;100.00;100822.72;5090280;28;20051;-73
2023/04/26 01:38:24;;;;;;;10.93;3.10;;;2.20;99.90;;;2.08;100.00;100827.25;5091536;28;20417;-74
2023/04/26 01:40:53;;;;;;;11.02;2.78;;;2.20;99.90;;;2.11;100.00;100821.56;5091566;28;20036;-75
2023/04/26 01:43:20;;;;;;;10.30;2.97;;;2.20;99.90;;;2.13;100.00;100821.41;5090661;28;20480;-74
2023/04/26 01:45:49;;;;;;;9.50;3.00;;;2.20;99.90;;;2.15;100.00;100825.66;5061138;28;20097;-74
2023/04/26 01:48:28;;;;;;;12.88;2.80;;;2.20;99.90;;;2.18;100.00;100829.03;5084179;28;20031;-74
2023/04/26 01:50:54;;;;;;;10.63;2.33;;;2.30;99.90;;;2.15;100.00;100827.47;5090779;28;20032;-74
2023/04/26 01:53:20;;;;;;;8.90;2.95;;;2.30;99.90;;;2.17;100.00;100830.84;5063091;28;20502;-74
2023/04/26 01:55:45;;;;;;;10.70;3.10;;;2.30;99.90;;;2.22;100.00;100833.91;5091442;28;20527;-74
2023/04/26 01:58:11;;;;;;;9.68;2.85;;;2.40;99.90;;;2.19;100.00;100830.72;5056908;28;20068;-74
2023/04/26 02:00:37;;;;;;;7.57;2.63;;;2.30;99.90;;;2.19;100.00;100823.47;5056313;28;20399;-75
2023/04/26 02:03:03;;;;;;;6.82;2.65;;;2.40;99.90;;;2.20;100.00;100827.03;5072493;28;20121;-75
2023/04/26 02:05:29;;;;;;;10.98;2.75;;;2.40;99.90;;;2.20;100.00;100832.41;5087160;28;20078;-75
2023/04/26 02:07:55;;;;;;;7.95;2.60;;;2.40;99.90;;;2.13;100.00;100826.78;5075284;28;20498;-75
2023/04/26 02:10:21;;;;;;;10.50;2.97;;;2.30;99.90;;;2.12;100.00;100825.09;5092445;28;20036;-75
2023/04/26 02:12:46;;;;;;;13.68;3.28;;;2.30;99.90;;;2.01;100.00;100816.28;5072477;28;20036;-74
2023/04/26 02:15:13;;;;;;;10.80;2.92;;;2.30;99.90;;;2.00;100.00;100817.28;5091737;28;20072;-74
2023/04/26 02:17:39;;;;;;;11.13;2.63;;;2.30;99.90;;;2.03;100.00;100821.50;5090689;28;20042;-74
2023/04/26 02:20:09;;;;;;;10.65;3.22;;;2.20;99.90;;;2.12;100.00;100835.88;5056398;28;20560;-74
2023/04/26 02:22:34;;;;;;;10.75;2.83;;;2.30;99.90;;;2.07;100.00;100822.88;5055013;28;20146;-74
2023/04/26 02:25:00;;;;;;;11.57;3.05;;;2.30;99.90;;;2.13;100.00;100830.34;5090473;28;20122;-74
2023/04/26 02:27:26;;;;;;;9.95;3.03;;;2.30;99.90;;;2.11;100.00;100826.09;5089483;28;20076;-74
2023/04/26 02:29:53;;;;;;;7.57;3.35;;;2.30;99.90;;;2.04;100.00;100827.75;5090540;28;20123;-74
2023/04/26 02:32:19;;;;;;;9.25;3.33;;;2.30;99.90;;;2.00;100.00;100827.19;5060700;28;20396;-74
2023/04/26 02:34:45;;;;;;;10.15;2.97;;;2.30;99.90;;;1.99;100.00;100836.28;5069094;28;20452;-73
2023/04/26 02:37:10;;;;;;;12.30;3.63;;;2.10;99.90;;;1.90;100.00;100845.28;5086927;28;20032;-74
2023/04/26 02:39:37;;;;;;;12.70;3.58;;;2.00;99.90;;;1.79;100.00;100836.44;5057436;28;20098;-74
2023/04/26 02:42:02;;;;;;;8.98;3.00;;;2.00;99.90;;;1.78;100.00;100839.31;5086463;28;20475;-74
2023/04/26 02:44:29;;;;;;;11.15;3.20;;;2.00;99.90;;;1.77;100.00;100840.31;5071738;28;20052;-74
2023/04/26 02:46:56;;;;;;;11.00;3.40;;;1.90;99.90;;;1.68;100.00;100845.59;5069926;28;20041;-75
2023/04/26 02:49:22;;;;;;;14.20;3.45;;;1.90;99.90;;;1.72;100.00;100843.44;5090839;28;20024;-74
2023/04/26 02:51:48;;;;;;;14.50;5.40;;;1.90;99.90;;;1.61;100.00;100835.63;5089089;28;20506;-74
2023/04/26 02:54:15;;;;;;;11.57;2.65;;;1.80;99.90;;;1.64;100.00;100843.38;5057058;28;20028;-74
2023/04/26 02:56:40;;;;;;;7.22;3.08;;;1.80;99.90;;;1.58;100.00;100842.13;5087053;28;20085;-74
2023/04/26 02:59:06;;;;;;;16.00;3.40;;;1.70;99.90;;;1.60;100.00;100842.00;5058549;28;20059;-74
2023/04/26 03:01:32;;;;;;;13.20;3.60;;;1.70;99.90;;;1.50;100.00;100826.75;5069153;28;20049;-75
2023/04/26 03:03:58;;;;;;;12.50;3.35;;;1.70;99.90;;;1.56;100.00;100842.28;5054703;28;20389;-74
2023/04/26 03:06:24;;;;;;;8.57;3.67;;;1.70;99.90;;;1.45;100.00;100839.81;5089483;28;20032;-74
2023/04/26 03:08:49;;;;;;;13.05;3.58;;;1.60;99.90;;;1.38;100.00;100830.69;5089141;28;20058;-74
2023/04/26 03:11:15;;;;;;;10.95;3.40;;;1.60;99.90;;;1.37;100.00;100837.06;5064509;28;20032;-74
2023/04/26 03:13:41;;;;;;;8.10;3.10;;;1.50;99.90;;;1.34;100.00;100827.44;5088732;28;20483;-74
2023/04/26 03:16:08;;;;;;;11.45;3.67;;;1.60;99.90;;;1.40;100.00;100828.69;5072277;28;20063;-74
2023/04/26 03:18:33;;;;;;;10.65;3.38;;;1.60;99.90;;;1.43;100.00;100833.75;5089927;28;20032;-73
2023/04/26 03:21:00;;;;;;;20.85;4.43;;;1.60;99.90;;;1.52;100.00;100840.06;5068053;28;20028;-74
2023/04/26 03:23:26;;;;;;;13.38;4.13;;;1.70;99.90;;;1.49;100.00;100838.50;5088937;28;20068;-74
2023/04/26 03:25:52;;;;;;;11.70;3.70;;;1.70;99.90;;;1.41;100.00;100822.31;5067743;28;20399;-74
2023/04/26 03:28:18;;;;;;;14.38;4.20;;;1.70;99.90;;;1.52;100.00;100842.75;5065451;28;20110;-74
2023/04/26 03:30:44;;;;;;;15.93;3.75;;;1.60;99.90;;;1.50;100.00;100837.50;5089444;28;20364;-74
2023/04/26 03:33:12;;;;;;;9.68;3.83;;;1.70;99.90;;;1.47;100.00;100837.00;5071269;28;20038;-74
2023/04/26 03:35:37;;;;;;;12.68;3.22;;;1.60;99.90;;;1.44;100.00;100838.13;5071150;28;20039;-75
2023/04/26 03:38:03;;;;;;;12.73;3.65;;;1.60;99.90;;;1.46;100.00;100838.81;5058009;28;20093;-75
2023/04/26 03:40:30;;;;;;;17.88;4.05;;;1.70;99.90;;;1.47;100.00;100832.44;5055916;28;20032;-74
2023/04/26 03:42:56;;;;;;;10.27;3.63;;;1.70;99.90;;;1.39;100.00;100832.38;5065773;28;20137;-74
2023/04/26 03:45:22;;;;;;;16.40;3.55;;;1.60;99.90;;;1.38;100.00;100836.06;5054800;28;20525;-74
2023/04/26 03:47:48;;;;;;;13.73;4.13;;;1.50;99.90;;;1.36;100.00;100832.69;5089367;28;20090;-74
2023/04/26 03:50:13;;;;;;;15.35;3.88;;;1.50;99.90;;;1.37;100.00;100831.69;5071934;28;20047;-74
2023/04/26 03:52:39;;;;;;;12.93;3.80;;;1.50;99.90;;;1.34;100.00;100834.66;5071388;28;20394;-75
2023/04/26 03:55:08;;;;;;;11.13;3.45;;;1.50;99.90;;;1.31;100.00;100826.88;5072244;28;20024;-74
2023/04/26 03:57:35;;;;;;;14.70;4.43;;;1.50;99.90;;;1.34;100.00;100837.38;5088848;28;20119;-74
2023/04/26 04:00:01;;;;;;;19.35;4.32;;;1.50;99.90;;;1.33;100.00;100841.06;5055976;28;20074;-74
2023/04/26 04:02:27;;;;;;;12.45;4.25;;;1.50;99.90;;;1.31;100.00;100843.88;5070415;28;20031;-76
2023/04/26 04:04:52;;;;;;;17.55;3.92;;;1.50;99.90;;;1.41;100.00;100841.13;5068264;28;20383;-74
2023/04/26 04:07:18;;;;;;;15.68;4.03;;;1.60;99.90;;;1.39;100.00;100841.25;5055581;28;20028;-75
2023/04/26 04:09:44;;;;;;;12.10;3.65;;;1.60;99.90;;;1.41;100.00;100839.28;5057303;28;20064;-74
2023/04/26 04:12:10;;;;;;;12.07;3.85;;;1.60;99.90;;;1.43;100.00;100853.41;5057894;28;20036;-73
2023/04/26 04:14:36;;;;;;;14.05;3.50;;;1.60;99.90;;;1.46;100.00;100849.56;5073419;28;20039;-75
2023/04/26 04:17:02;;;;;;;16.40;4.30;;;1.60;99.90;;;1.46;100.00;100846.88;5054736;28;20042;-74
2023/04/26 04:19:29;;;;;;;10.30;3.80;;;1.60;99.90;;;1.44;100.00;100847.03;5063997;28;20033;-74
2023/04/26 04:21:55;;;;;;;10.25;3.80;;;1.60;99.90;;;1.43;100.00;100842.66;5092588;28;20090;-73
2023/04/26 04:24:20;;;;;;;16.30;4.32;;;1.60;99.90;;;1.50;100.00;100852.81;5089971;28;20032;-73
2023/04/26 04:26:46;;;;;;;14.23;5.30;;;1.60;99.90;;;1.51;100.00;100844.59;5092467;28;20051;-73
2023/04/26 04:29:14;;;;;;;15.47;3.77;;;1.60;99.90;;;1.56;100.00;100853.03;5092875;28;20032;-73
2023/04/26 04:31:40;;;;;;;16.65;3.88;;;1.70;99.90;;;1.58;100.00;100851.03;5067877;28;20124;-73
2023/04/26 04:34:09;;;;;;;12.85;3.80;;;1.70;99.90;;;1.63;100.00;100847.91;5054651;28;20033;-74
2023/04/26 04:36:40;;;;;;;8.48;3.67;;;1.80;99.90;;;1.72;100.00;100847.00;5048665;28;20123;-74
2023/04/26 04:39:12;;;;;;;16.25;4.30;;;1.90;99.90;;;1.81;100.00;100858.66;5067735;28;20093;-74
2023/04/26 04:41:39;;;;;;;18.73;4.57;;;2.00;99.90;;;1.91;100.00;100866.66;5062158;28;20086;-74
2023/04/26 04:44:05;;;;;;;13.53;3.97;;;2.10;99.90;;;2.05;100.00;100856.34;5065559;28;20143;-74
2023/04/26 04:46:31;;;;;;;12.82;3.55;;;2.20;99.90;;;2.15;100.00;100847.19;5074606;28;20115;-74
2023/04/26 04:48:56;;;;;;;11.93;3.92;;;2.40;99.90;;;2.37;100.00;100857.59;5092919;28;20085;-75
2023/04/26 04:51:22;;;;;;;12.55;4.22;;;2.50;99.90;;;2.49;100.00;100847.41;5092644;28;20505;-75
2023/04/26 04:53:48;;;;;;;12.93;3.97;;;2.70;99.90;;;2.59;100.00;100856.22;5092625;28;20020;-75
2023/04/26 04:56:14;;;;;;;9.65;3.78;;;2.90;99.90;;;2.82;100.00;100861.06;5092575;28;20036;-74
2023/04/26 04:58:40;;;;;;;13.50;3.55;;;3.10;99.90;;;2.97;100.00;100856.75;5082382;28;20039;-76
2023/04/26 05:01:06;;;;;;;13.45;3.72;;;3.20;99.90;;;3.09;100.00;100853.75;5076421;28;20497;-74
2023/04/26 05:03:45;;;;;;;9.15;3.40;;;3.30;99.90;;;3.07;100.00;100858.47;5062607;28;20048;-75
2023/04/26 05:06:10;;;;;;;10.60;3.50;;;3.40;99.90;;;3.07;100.00;100845.84;5096973;28;20024;-75
2023/04/26 05:08:36;;;;;;;12.45;3.20;;;3.50;99.90;;;3.17;100.00;100856.47;5059320;28;20488;-74
2023/04/26 05:11:05;;;;;;;11.18;3.35;;;3.50;99.90;;;3.08;100.00;100858.31;5097289;28;20062;-74
2023/04/26 05:13:32;;;;;;;12.10;3.70;;;3.60;99.90;;;3.34;100.00;100861.94;5075920;28;20040;-74
2023/04/26 05:15:58;;;;;;;14.90;3.50;;;3.60;99.90;;;3.20;100.00;100856.19;5076727;28;20039;-75
2023/04/26 05:18:24;;;;;;;10.40;2.97;;;3.60;99.90;;;3.22;100.00;100856.00;5074170;28;20040;-75
2023/04/26 05:20:50;;;;;;;12.88;3.20;;;3.60;99.90;;;3.27;100.00;100859.91;5060341;28;20028;-74
2023/04/26 05:23:16;;;;;;;16.60;3.53;;;3.50;99.90;;;3.18;100.00;100863.56;5067306;28;20559;-75
2023/04/26 05:25:41;;;;;;;12.55;3.05;;;3.50;99.90;;;3.10;100.00;100859.00;5068102;28;20036;-75
2023/04/26 05:28:27;;;;;;;11.93;3.28;;;3.40;99.90;;;3.14;100.00;100868.47;5077724;28;20452;-74
2023/04/26 05:31:20;;;;;;;10.25;3.08;;;3.40;99.90;;;3.06;100.00;100873.81;5037415;28;20123;-74
2023/04/26 05:34:04;;;;;;;11.35;3.28;;;3.40;99.90;;;2.83;100.00;100862.75;5076517;28;20093;-76
2023/04/26 05:36:35;;;;;;;8.98;3.55;;;3.40;99.90;;;3.12;100.00;100875.00;5067347;28;20043;-76
2023/04/26 05:39:01;;;;;;;10.80;3.08;;;3.40;99.90;;;3.23;100.00;100880.13;5061260;28;20029;-76
2023/04/26 05:41:26;;;;;;;11.82;3.47;;;3.60;99.90;;;3.26;100.00;100887.03;5052161;28;20040;-81
2023/04/26 05:43:52;;;;;;;10.00;3.55;;;3.70;99.90;;;3.43;100.00;100887.91;5049046;28;20481;-75
2023/04/26 05:46:18;;;;;;;9.65;3.33;;;3.80;99.90;;;3.51;100.00;100890.66;5053415;28;20082;-74
2023/04/26 05:48:44;;;;;;;12.02;3.25;;;3.80;99.90;;;3.51;100.00;100884.41;5059011;28;20043;-74
2023/04/26 05:51:11;;;;;;;16.88;3.65;;;4.00;99.90;;;3.47;100.00;100875.81;5051417;28;20033;-73
2023/04/26 05:53:37;;;;;;;11.43;3.83;;;4.10;99.90;;;3.58;100.00;100886.28;5047390;28;20032;-74
2023/04/26 05:56:03;;;;;;;14.98;4.15;;;4.10;99.90;;;3.82;100.00;100886.50;5052455;28;20482;-74
2023/04/26 05:58:29;;;;;;;8.68;3.38;;;4.20;99.90;;;3.88;100.00;100875.88;5043198;28;20033;-75
2023/04/26 06:00:55;;;;;;;13.77;3.60;;;4.30;99.90;;;3.77;100.00;100856.47;5045459;28;20510;-75
2023/04/26 06:03:21;;;;;;;14.82;3.58;;;4.30;99.90;;;4.03;100.00;100884.16;5043752;28;20504;-75
2023/04/26 06:05:46;;;;;;;10.60;3.80;;;4.40;99.90;;;4.31;99.84;100880.28;5061598;28;20029;-76
2023/04/26 06:08:12;;;;;;;8.88;3.25;;;4.60;99.90;;;4.48;98.65;100881.13;5074403;28;20036;-75
2023/04/26 06:10:38;;;;;;;15.13;3.70;;;4.70;99.90;;;4.52;98.57;100873.53;5073275;28;20106;-75
2023/04/26 06:13:05;;;;;;;11.13;3.13;;;4.80;99.90;;;4.62;98.18;100871.47;5065043;28;20121;-75
2023/04/26 06:15:34;;;;;;;14.02;3.50;;;4.90;99.90;;;4.74;94.60;100880.88;5076785;28;20462;-75
2023/04/26 06:18:00;;;;;;;10.00;3.00;;;5.00;99.90;;;4.66;94.04;100871.97;5064805;28;20021;-75
2023/04/26 06:20:26;;;;;;;9.00;2.78;;;5.10;99.90;;;4.77;93.44;100870.75;5058948;28;20422;-75
2023/04/26 06:22:52;;;;;;;10.15;3.17;;;5.10;99.90;;;4.83;92.79;100868.19;5069334;28;20037;-75
2023/04/26 06:25:18;;;;;;;8.85;2.70;;;5.20;99.90;;;4.92;92.60;100876.31;5067436;28;20040;-77
2023/04/26 06:27:44;;;;;;;10.63;3.20;;;5.30;99.90;;;5.05;92.99;100876.56;5041611;28;20033;-75
2023/04/26 06:30:10;;;;;;;10.20;3.22;;;5.40;99.90;;;5.22;92.45;100861.13;5069467;28;20078;-75
2023/04/26 06:32:41;;;;;;;8.38;3.22;;;5.50;99.90;;;4.88;90.97;100873.91;5052131;28;20116;-75
2023/04/26 06:35:08;;;;;;;11.27;2.92;;;5.50;99.90;;;5.14;90.08;100877.41;5051126;28;20060;-75
2023/04/26 06:37:34;;;;;;;15.05;3.28;;;5.60;99.90;;;5.25;90.37;100885.09;5068448;28;20040;-74
2023/04/26 06:40:01;;;;;;;11.95;2.80;;;5.70;99.90;;;5.44;89.27;100883.84;5043829;28;20032;-76
2023/04/26 06:42:26;;;;;;;13.60;2.78;;;5.80;99.90;;;5.20;88.27;100882.09;5055249;28;20028;-75
2023/04/26 06:45:06;;;;;;;10.07;2.70;;;5.90;99.90;;;5.26;87.35;100883.25;5038033;28;20531;-75
2023/04/26 06:47:33;;;;;;;11.98;2.45;;;5.90;99.90;;;5.30;86.42;100874.63;5033512;28;20028;-75
2023/04/26 06:50:00;;;;;;;11.95;2.83;;;5.90;99.90;;;5.58;87.23;100884.97;5051664;28;20480;-75
2023/04/26 06:52:25;;;;;;;8.18;2.65;;;5.90;99.90;;;5.47;86.22;100874.53;5069551;28;20060;-76
2023/04/26 06:54:51;;;;;;;9.05;3.08;;;6.10;99.90;;;5.77;85.72;100853.03;5071094;28;20075;-75
2023/04/26 06:57:18;;;;;;;9.48;2.75;;;6.30;99.90;;;5.96;84.37;100886.06;5057322;28;20071;-76
2023/04/26 06:59:44;;;;;;;16.48;2.80;;;6.30;99.90;;;5.73;83.91;100866.09;5070244;28;20028;-75
2023/04/26 07:02:09;;;;;;;7.88;2.70;;;6.50;99.90;;;6.09;83.92;100880.91;5053194;28;20399;-75
2023/04/26 07:04:35;;;;;;;7.75;2.33;;;6.60;99.90;;;6.21;80.01;100885.91;5070770;28;20358;-75
2023/04/26 07:07:01;;;;;;;11.43;3.55;;;6.70;99.90;;;6.43;81.83;100890.47;5070036;28;20040;-75
2023/04/26 07:09:27;;;;;;;9.60;2.55;;;6.80;99.90;;;6.69;80.84;100882.91;5070601;28;20039;-75
2023/04/26 07:11:53;;;;;;;12.18;2.58;;;7.00;99.90;;;6.88;79.13;100876.09;5043160;28;20033;-78
2023/04/26 07:14:18;;;;;;;9.98;2.60;;;7.20;99.90;;;7.25;78.69;100882.47;5070136;28;20572;-77
2023/04/26 07:16:44;;;;;;;10.80;2.80;;;7.50;99.90;;;7.26;73.37;100861.56;5070320;28;20044;-75
2023/04/26 07:19:10;;;;;;;9.65;2.70;;;7.70;99.90;;;7.54;73.00;100879.88;5050654;28;20033;-74
2023/04/26 07:21:36;;;;;;;11.27;2.75;;;7.90;99.90;;;7.45;72.98;100877.28;5052193;28;20059;-74
2023/04/26 07:24:02;;;;;;;8.55;2.47;;;8.00;99.90;;;6.55;74.82;100877.31;5068863;28;20037;-75
2023/04/26 07:26:28;;;;;;;8.43;3.10;;;7.50;99.90;;;7.01;76.00;100889.88;5070868;28;20079;-75
2023/04/26 07:28:54;;;;;;;10.20;2.67;;;7.50;99.90;;;7.14;74.67;100881.06;5089862;28;20032;-76
2023/04/26 07:31:20;;;;;;;10.65;3.30;;;7.60;99.90;;;6.94;74.77;100883.50;5090766;28;20028;-75
2023/04/26 07:33:46;;;;;;;9.38;2.63;;;7.60;99.90;;;7.11;73.35;100867.03;5059544;28;20036;-76
2023/04/26 07:36:11;;;;;;;11.73;2.80;;;7.70;99.90;;;6.57;75.66;100885.25;5088993;28;20392;-74
2023/04/26 07:38:37;;;;;;;11.07;3.10;;;7.40;99.90;;;7.07;75.69;100890.13;5090529;28;20064;-76
2023/04/26 07:41:03;;;;;;;9.98;2.42;;;7.50;99.90;;;7.08;74.25;100886.41;5076958;28;20024;-76
2023/04/26 07:43:30;;;;;;;7.88;3.00;;;7.60;99.90;;;7.21;73.97;100892.00;5094229;28;20066;-76
2023/04/26 07:46:02;;;;;;;11.30;2.60;;;7.60;99.90;;;7.76;73.76;100888.91;5093443;28;20496;-76
2023/04/26 07:48:28;;;;;;;10.23;2.28;;;8.00;99.90;;;8.15;70.98;100893.03;5075433;28;20031;-76
2023/04/26 07:50:54;;;;;;;9.35;2.75;;;8.40;99.90;;;7.65;67.99;100883.97;5061116;28;20044;-75
2023/04/26 07:53:21;;;;;;;9.38;2.08;;;8.50;99.90;;;6.76;70.94;100895.56;5064429;28;20028;-75
2023/04/26 07:55:46;;;;;;;14.77;3.35;;;7.80;99.90;;;7.04;72.61;100896.81;5093721;28;20460;-75
2023/04/26 07:58:13;;;;;;;8.15;2.92;;;7.60;99.90;;;7.54;71.69;100886.16;5093141;28;20037;-75
2023/04/26 08:00:40;;;;;;;11.05;2.95;;;7.80;99.90;;;7.12;69.75;100884.97;5093694;28;20046;-75
2023/04/26 08:03:07;;;;;;;11.88;2.65;;;7.90;99.90;;;7.31;70.32;100883.59;5092838;28;20126;-76
2023/04/26 08:05:33;;;;;;;9.15;2.70;;;7.90;99.90;;;7.98;68.68;100878.06;5093537;28;20035;-75
2023/04/26 08:08:00;;;;;;;7.10;2.72;;;8.30;99.90;;;8.42;67.87;100887.00;5093429;28;20031;-76
2023/04/26 08:10:26;;;;;;;11.88;2.40;;;8.70;99.90;;;7.90;64.50;100873.59;5093555;28;20441;-74
2023/04/26 08:12:53;;;;;;;8.10;1.83;;;8.70;99.90;;;7.16;65.34;100867.28;5075305;28;20036;-75
2023/04/26 08:15:19;;;;;;;8.40;2.65;;;8.20;99.90;;;6.51;67.15;100888.69;5093519;28;20036;-74
2023/04/26 08:17:45;;;;;;;5.50;2.67;;;7.70;99.90;;;6.73;68.81;100895.94;5058955;28;20048;-75
2023/04/26 08:20:11;;;;;;;8.85;2.53;;;7.50;99.90;;;7.02;67.50;100874.41;5093139;28;20101;-76
2023/04/26 08:22:37;;;;;;;10.00;2.03;;;7.60;99.90;;;7.17;64.88;100877.97;5092842;28;20043;-75
2023/04/26 08:25:04;;;;;;;12.00;3.05;;;7.80;99.90;;;7.18;66.41;100857.94;5093535;28;20040;-75
2023/04/26 08:27:30;;;;;;;10.35;2.33;;;8.00;99.90;;;7.39;65.22;100858.19;5081201;28;20408;-75
2023/04/26 08:29:56;;;;;;;9.80;2.15;;;8.20;99.90;;;8.00;63.78;100857.78;5072517;28;20048;-76
2023/04/26 08:32:22;;;;;;;8.90;2.25;;;8.60;99.90;;;7.68;60.55;100856.41;5039454;28;20503;-75
2023/04/26 08:34:47;;;;;;;4.95;1.77;;;8.60;99.90;;;7.39;59.76;100860.91;5072116;28;20036;-75
2023/04/26 08:37:13;;;;;;;10.32;2.60;;;8.30;99.90;;;7.49;59.22;100854.13;5071985;28;20086;-75
2023/04/26 08:39:40;;;;;;;6.07;1.83;;;8.30;99.90;;;7.65;59.72;100864.94;5072634;28;20053;-76
2023/04/26 08:42:14;;;;;;;10.40;2.63;;;8.30;99.90;;;8.78;59.12;100858.84;5055203;28;20028;-76
2023/04/26 08:44:43;;;;;;;8.48;2.20;;;8.90;99.90;;;8.94;58.41;100852.22;5055057;28;20029;-75
2023/04/26 08:47:30;;;;;;;6.88;2.03;;;9.40;99.90;;;8.78;57.61;100856.97;5072060;28;20570;-76
2023/04/26 08:50:02;;;;;;;5.85;1.92;;;9.40;99.90;;;8.94;54.79;100841.34;5072357;28;20420;-75
2023/04/26 08:52:30;;;;;;;6.97;1.88;;;9.50;98.60;;;8.46;55.38;100845.63;5071484;28;20400;-75
2023/04/26 08:54:57;;;;;;;6.78;2.33;;;9.20;97.80;;;9.49;55.00;100852.28;5071275;28;20032;-75
2023/04/26 08:57:25;;;;;;;5.60;2.10;;;9.90;97.80;;;10.19;52.80;100845.69;5054282;28;20492;-75
2023/04/26 08:59:55;;;;;;;4.95;2.25;;;10.50;96.70;;;8.67;53.25;100838.47;5067585;28;20369;-75
2023/04/26 09:02:22;;;;;;;6.32;2.08;;;9.90;94.60;;;9.21;54.16;100853.22;5072136;28;20435;-76
2023/04/26 09:04:50;;;;;;;7.45;2.30;;;9.90;96.30;;;8.78;53.53;100846.09;5072081;28;20051;-76
2023/04/26 09:07:21;;;;;;;7.90;2.40;;;9.50;95.60;;;8.41;56.06;100867.13;5054113;28;20036;-75
2023/04/26 09:09:50;;;;;;;7.53;2.17;;;9.20;97.60;;;7.95;56.86;100865.69;5072526;28;20464;-76
2023/04/26 09:12:21;;;;;;;7.70;2.95;;;8.80;98.00;;;8.86;56.16;100871.44;5071879;28;20063;-75
2023/04/26 09:14:47;;;;;;;7.60;1.90;;;9.10;98.40;;;9.06;54.74;100858.81;5072484;28;20543;-75
2023/04/26 09:17:27;;;;;;;4.35;2.08;;;9.70;97.30;;;9.11;54.31;100854.63;5071421;28;20028;-76
2023/04/26 09:19:53;;;;;;;6.47;1.60;;;9.70;96.70;;;9.62;49.67;100826.09;5037615;28;20047;-76
2023/04/26 09:22:37;;;;;;;5.97;1.98;;;10.10;93.40;;;9.99;50.59;100847.53;5070205;28;20063;-75
2023/04/26 09:25:06;;;;;;;5.10;2.05;;;10.40;94.10;;;9.96;50.51;100820.72;5071774;28;20040;-76
2023/04/26 09:27:32;;;;;;;5.97;2.15;;;10.60;93.70;;;9.99;50.71;100840.22;5083169;28;20044;-76
2023/04/26 09:30:09;;;;;;;5.30;1.77;;;10.60;93.30;;;9.41;50.94;100854.34;5092043;28;20032;-75
2023/04/26 09:32:58;;;;;;;7.30;2.33;;;10.20;92.60;;;9.21;49.67;100847.78;5087485;28;20036;-76
2023/04/26 09:35:32;;;;;;;8.50;2.13;;;10.20;91.40;;;9.91;50.11;100852.16;5092169;28;20391;-76
2023/04/26 09:38:18;;;;;;;6.63;1.63;;;10.40;92.40;;;9.99;48.02;100833.91;5056645;28;20048;-76
2023/04/26 09:40:49;;;;;;;7.95;2.00;;;10.50;91.00;;;10.14;49.72;100850.06;5091028;28;20035;-76
2023/04/26 09:43:20;;;;;;;4.60;1.60;;;10.60;92.30;;;9.89;49.01;100845.22;5091160;28;20035;-75
2023/04/26 09:45:52;;;;;;;6.60;1.60;;;10.60;91.30;;;9.92;48.10;100839.34;5090700;28;20122;-76
2023/04/26 09:48:25;;;;;;;4.22;1.70;;;10.60;90.10;;;9.66;47.64;100838.25;5070240;28;20480;-75
2023/04/26 09:50:54;;;;;;;7.80;1.52;;;10.50;88.70;;;9.89;46.51;100829.72;5073076;28;20036;-76
2023/04/26 09:53:44;;;;;;;5.18;1.45;;;10.60;87.60;;;10.46;47.58;100815.69;5084361;28;20039;-76
2023/04/26 09:56:14;;;;;;;6.22;1.58;;;11.20;90.00;;;10.49;46.69;100839.81;5088488;28;20039;-76
2023/04/26 09:58:46;;;;;;;6.32;1.77;;;11.30;87.00;;;10.98;45.05;100834.03;5091433;28;20028;-76
2023/04/26 10:01:15;;;;;;;6.18;1.65;;;11.50;85.30;;;11.37;46.21;100840.38;5091126;28;20031;-76
2023/04/26 10:03:44;;;;;;;6.07;1.70;;;11.90;87.50;;;12.00;43.41;100821.50;5091190;28;20050;-76
2023/04/26 10:06:12;;;;;;;4.65;1.38;;;12.40;82.80;;;10.88;43.46;100815.38;5090212;28;20024;-76
2023/04/26 10:08:37;;;;;;;;;;;12.20;79.20;;;10.53;43.72;100832.06;5087362;28;20039;-76
2023/04/26 10:11:10;;;;;;;6.32;1.67;;;11.60;79.60;;;9.68;45.86;100835.34;5072850;28;20263;-75
2023/04/26 10:13:36;;;;;;;3.28;1.58;;;11.00;82.10;;;9.62;47.60;100837.00;5091850;28;20058;-74
2023/04/26 10:16:03;;;;;;;6.65;2.10;;;10.50;86.20;;;9.09;48.06;100854.00;5090028;28;20097;-75
2023/04/26 10:18:30;;;;;;;10.02;2.40;;;10.10;85.40;;;8.95;47.86;100863.97;5090839;28;20434;-75